Terminal Aerodrome Forecast
Issued by NWS

Home | Current Version | Previous Version | Text Only | Print | Product List | Glossary On
Versions: 1 2 3 4 5 6 7 8 9 10 11 12 13 14 15 16 17 18 19 20 21 22 23 24 25 26 27 28
000
FTUS42 KJAX 200500
TAFCRG
TAF
KCRG 200539Z 2006/2106 36010G20KT P6SM BKN010 OVC020
      TEMPO 2006/2010 4SM -DZ OVC008
     FM201000 36014G25KT P6SM SCT010 BKN015 OVC025
      TEMPO 2010/2014 4SM -DZ OVC008
     FM201600 36017G28KT P6SM SCT010 BKN015
     FM210000 02011KT P6SM SCT015 BKN025=

USA.gov is the U.S. government's official web portal to all federal, state and local government web resources and services.